ラパス の空港の天気 - METARとTAF

エル・アルト国際空港 ( SLLP / LPB ) - ボリビア ラパス
飛行場実況気象(Metar)
観測時間07/18 01:00 BOT (07/18 05:00 UTC)
風向・風速不定 1m/s
視程10km以上
天気現象
少しの雲 雲底高度 150m
気温3℃
湿度81%
気圧1039hPa
METARSLLP 180500Z VRB02KT 9999 FEW005 03/00 Q1039
過去の天気等 Google飛行場航空写真 Wunderground天気予報

過去48時間のMETAR

飛行場予報(TAF)
発表時間: 7/17 18:45 BOT (7/17 22:45 UTC)
予報対象時間: 17日20時 BOT ~ 18日20時 BOT
風向・風速東北東 3m/s
視程10km以上
少しの雲 雲底高度 400m
17日23時 BOT ~ 18日2時 BOT に徐々に
18日3時 BOT ~ 18日6時 BOT に 確率 40% で一時的に
視程1000m
天気現象部分霧
18日8時 BOT ~ 18日12時 BOT に徐々に
視程10km以上
天気現象運行に影響にある天気現象が終了
少しの雲 雲底高度 520m
TAF SLLP 172245Z 1800/1824 06005KT 9999 FEW013 TX13/1820Z TNM05/1810Z
BECMG 1803/1806 3000E VCFG FEW002
PROB40 TEMPO 1807/1810 1000 PRFG
BECMG 1812/1816 9999 NSW FEW017